sensor_id;sensor_type;location;lat;lon;timestamp;temperature;humidity
14850;DHT22;7517;48.400;11.770;2022-12-17T00:00:41;4.50;79.80
14850;DHT22;7517;48.400;11.770;2022-12-17T00:03:40;4.50;80.00
14850;DHT22;7517;48.400;11.770;2022-12-17T00:06:25;4.50;80.00
14850;DHT22;7517;48.400;11.770;2022-12-17T00:09:10;4.50;80.00
14850;DHT22;7517;48.400;11.770;2022-12-17T00:11:56;4.50;80.10
14850;DHT22;7517;48.400;11.770;2022-12-17T00:14:41;4.40;80.00
14850;DHT22;7517;48.400;11.770;2022-12-17T00:17:25;4.50;80.20
14850;DHT22;7517;48.400;11.770;2022-12-17T00:20:10;4.40;80.00
14850;DHT22;7517;48.400;11.770;2022-12-17T00:22:59;4.40;80.00
14850;DHT22;7517;48.400;11.770;2022-12-17T00:25:49;4.40;80.00
14850;DHT22;7517;48.400;11.770;2022-12-17T00:28:36;4.40;80.00
14850;DHT22;7517;48.400;11.770;2022-12-17T00:31:20;4.40;80.00
14850;DHT22;7517;48.400;11.770;2022-12-17T00:34:05;4.40;79.90
14850;DHT22;7517;48.400;11.770;2022-12-17T00:36:49;4.30;79.90
14850;DHT22;7517;48.400;11.770;2022-12-17T00:39:34;4.30;79.90
14850;DHT22;7517;48.400;11.770;2022-12-17T00:42:19;4.30;80.00
14850;DHT22;7517;48.400;11.770;2022-12-17T00:45:06;4.30;80.00
14850;DHT22;7517;48.400;11.770;2022-12-17T00:47:51;4.30;79.90
14850;DHT22;7517;48.400;11.770;2022-12-17T00:50:35;4.30;79.90
14850;DHT22;7517;48.400;11.770;2022-12-17T00:53:20;4.30;79.90
14850;DHT22;7517;48.400;11.770;2022-12-17T00:56:05;4.30;80.00
14850;DHT22;7517;48.400;11.770;2022-12-17T00:58:50;4.30;80.00
14850;DHT22;7517;48.400;11.770;2022-12-17T01:01:36;4.20;80.00
14850;DHT22;7517;48.400;11.770;2022-12-17T01:04:17;4.20;79.80
14850;DHT22;7517;48.400;11.770;2022-12-17T01:07:02;4.30;80.00
14850;DHT22;7517;48.400;11.770;2022-12-17T01:09:47;4.20;79.70
14850;DHT22;7517;48.400;11.770;2022-12-17T01:12:32;4.20;79.90
14850;DHT22;7517;48.400;11.770;2022-12-17T01:15:16;4.20;79.90
14850;DHT22;7517;48.400;11.770;2022-12-17T01:18:03;4.20;79.90
14850;DHT22;7517;48.400;11.770;2022-12-17T01:20:47;4.20;80.00
14850;DHT22;7517;48.400;11.770;2022-12-17T01:23:38;4.20;79.90
14850;DHT22;7517;48.400;11.770;2022-12-17T01:26:23;4.20;79.70
14850;DHT22;7517;48.400;11.770;2022-12-17T01:29:08;4.10;79.50
14850;DHT22;7517;48.400;11.770;2022-12-17T01:31:53;4.10;79.50
14850;DHT22;7517;48.400;11.770;2022-12-17T01:34:39;4.10;79.60
14850;DHT22;7517;48.400;11.770;2022-12-17T01:37:23;4.10;79.70
14850;DHT22;7517;48.400;11.770;2022-12-17T01:40:09;4.10;79.60
14850;DHT22;7517;48.400;11.770;2022-12-17T01:42:54;4.10;79.60
14850;DHT22;7517;48.400;11.770;2022-12-17T01:45:41;4.10;79.30
14850;DHT22;7517;48.400;11.770;2022-12-17T01:48:30;4.10;79.20
14850;DHT22;7517;48.400;11.770;2022-12-17T01:51:21;4.00;79.40
14850;DHT22;7517;48.400;11.770;2022-12-17T01:54:09;4.00;79.20
14850;DHT22;7517;48.400;11.770;2022-12-17T01:56:56;4.00;79.30
14850;DHT22;7517;48.400;11.770;2022-12-17T01:59:46;4.00;79.10
14850;DHT22;7517;48.400;11.770;2022-12-17T02:02:34;3.90;79.10
14850;DHT22;7517;48.400;11.770;2022-12-17T02:05:24;3.90;79.10
14850;DHT22;7517;48.400;11.770;2022-12-17T02:08:22;3.90;78.90
14850;DHT22;7517;48.400;11.770;2022-12-17T02:11:15;3.90;78.90
14850;DHT22;7517;48.400;11.770;2022-12-17T02:14:14;3.90;78.80
14850;DHT22;7517;48.400;11.770;2022-12-17T02:17:07;3.90;79.00
14850;DHT22;7517;48.400;11.770;2022-12-17T02:20:07;3.90;78.80
14850;DHT22;7517;48.400;11.770;2022-12-17T02:23:11;3.80;78.70
14850;DHT22;7517;48.400;11.770;2022-12-17T02:26:10;3.80;78.90
14850;DHT22;7517;48.400;11.770;2022-12-17T02:29:01;3.80;79.00
14850;DHT22;7517;48.400;11.770;2022-12-17T02:31:48;3.80;78.90
14850;DHT22;7517;48.400;11.770;2022-12-17T02:34:42;3.70;78.90
14850;DHT22;7517;48.400;11.770;2022-12-17T02:37:28;3.70;78.90
14850;DHT22;7517;48.400;11.770;2022-12-17T02:40:12;3.70;79.00
14850;DHT22;7517;48.400;11.770;2022-12-17T02:42:58;3.70;79.10
14850;DHT22;7517;48.400;11.770;2022-12-17T02:45:45;3.70;79.10
14850;DHT22;7517;48.400;11.770;2022-12-17T02:48:45;3.70;79.30
14850;DHT22;7517;48.400;11.770;2022-12-17T02:51:29;3.70;80.10
14850;DHT22;7517;48.400;11.770;2022-12-17T02:54:14;3.60;80.00
14850;DHT22;7517;48.400;11.770;2022-12-17T02:56:59;3.60;78.80
14850;DHT22;7517;48.400;11.770;2022-12-17T02:59:44;3.70;78.80
14850;DHT22;7517;48.400;11.770;2022-12-17T03:02:30;3.70;78.80
14850;DHT22;7517;48.400;11.770;2022-12-17T03:05:15;3.70;78.90
14850;DHT22;7517;48.400;11.770;2022-12-17T03:08:00;3.70;78.60
14850;DHT22;7517;48.400;11.770;2022-12-17T03:10:47;3.60;78.50
14850;DHT22;7517;48.400;11.770;2022-12-17T03:13:31;3.60;78.40
14850;DHT22;7517;48.400;11.770;2022-12-17T03:16:16;3.60;78.50
14850;DHT22;7517;48.400;11.770;2022-12-17T03:19:03;3.60;78.50
14850;DHT22;7517;48.400;11.770;2022-12-17T03:21:48;3.60;78.60
14850;DHT22;7517;48.400;11.770;2022-12-17T03:24:32;3.60;78.40
14850;DHT22;7517;48.400;11.770;2022-12-17T03:27:16;3.50;78.20
14850;DHT22;7517;48.400;11.770;2022-12-17T03:30:01;3.50;78.20
14850;DHT22;7517;48.400;11.770;2022-12-17T03:32:46;3.50;78.40
14850;DHT22;7517;48.400;11.770;2022-12-17T03:35:32;3.50;78.30
14850;DHT22;7517;48.400;11.770;2022-12-17T03:38:17;3.50;78.10
14850;DHT22;7517;48.400;11.770;2022-12-17T03:41:02;3.50;78.20
14850;DHT22;7517;48.400;11.770;2022-12-17T03:43:46;3.50;78.30
14850;DHT22;7517;48.400;11.770;2022-12-17T03:46:31;3.50;78.20
14850;DHT22;7517;48.400;11.770;2022-12-17T03:49:16;3.50;78.30
14850;DHT22;7517;48.400;11.770;2022-12-17T03:52:02;3.50;78.20
14850;DHT22;7517;48.400;11.770;2022-12-17T03:54:46;3.40;78.20
14850;DHT22;7517;48.400;11.770;2022-12-17T03:57:31;3.40;78.40
14850;DHT22;7517;48.400;11.770;2022-12-17T04:00:22;3.40;78.60
14850;DHT22;7517;48.400;11.770;2022-12-17T04:03:06;3.40;78.50
14850;DHT22;7517;48.400;11.770;2022-12-17T04:06:03;3.40;78.20
14850;DHT22;7517;48.400;11.770;2022-12-17T04:08:49;3.40;78.10
14850;DHT22;7517;48.400;11.770;2022-12-17T04:11:34;3.40;78.50
14850;DHT22;7517;48.400;11.770;2022-12-17T04:14:18;3.40;77.90
14850;DHT22;7517;48.400;11.770;2022-12-17T04:17:05;3.30;77.90
14850;DHT22;7517;48.400;11.770;2022-12-17T04:19:50;3.30;77.90
14850;DHT22;7517;48.400;11.770;2022-12-17T04:22:35;3.30;77.80
14850;DHT22;7517;48.400;11.770;2022-12-17T04:25:20;3.30;77.50
14850;DHT22;7517;48.400;11.770;2022-12-17T04:28:05;3.30;77.60
14850;DHT22;7517;48.400;11.770;2022-12-17T04:30:50;3.30;77.80
14850;DHT22;7517;48.400;11.770;2022-12-17T04:33:34;3.20;77.90
14850;DHT22;7517;48.400;11.770;2022-12-17T04:36:19;3.20;77.90
14850;DHT22;7517;48.400;11.770;2022-12-17T04:39:04;3.20;77.80
14850;DHT22;7517;48.400;11.770;2022-12-17T04:41:50;3.20;77.80
14850;DHT22;7517;48.400;11.770;2022-12-17T04:44:35;3.20;78.00
14850;DHT22;7517;48.400;11.770;2022-12-17T04:47:19;3.20;77.90
14850;DHT22;7517;48.400;11.770;2022-12-17T04:50:05;3.20;78.00
14850;DHT22;7517;48.400;11.770;2022-12-17T04:52:49;3.20;78.20
14850;DHT22;7517;48.400;11.770;2022-12-17T04:55:43;3.20;78.00
14850;DHT22;7517;48.400;11.770;2022-12-17T04:58:29;3.20;77.90
14850;DHT22;7517;48.400;11.770;2022-12-17T05:01:15;3.20;77.90
14850;DHT22;7517;48.400;11.770;2022-12-17T05:03:59;3.20;78.00
14850;DHT22;7517;48.400;11.770;2022-12-17T05:06:44;3.20;78.00
14850;DHT22;7517;48.400;11.770;2022-12-17T05:09:29;3.20;77.90
14850;DHT22;7517;48.400;11.770;2022-12-17T05:12:14;3.10;77.80
14850;DHT22;7517;48.400;11.770;2022-12-17T05:15:00;3.10;77.50
14850;DHT22;7517;48.400;11.770;2022-12-17T05:17:44;3.10;77.50
14850;DHT22;7517;48.400;11.770;2022-12-17T05:20:29;3.10;77.60
14850;DHT22;7517;48.400;11.770;2022-12-17T05:23:25;3.10;77.70
14850;DHT22;7517;48.400;11.770;2022-12-17T05:26:16;3.10;77.60
14850;DHT22;7517;48.400;11.770;2022-12-17T05:29:03;3.10;77.60
14850;DHT22;7517;48.400;11.770;2022-12-17T05:31:49;3.00;77.40
14850;DHT22;7517;48.400;11.770;2022-12-17T05:34:34;3.00;77.20
14850;DHT22;7517;48.400;11.770;2022-12-17T05:37:19;3.00;77.60
14850;DHT22;7517;48.400;11.770;2022-12-17T05:40:08;3.00;77.50
14850;DHT22;7517;48.400;11.770;2022-12-17T05:42:55;2.90;77.50
14850;DHT22;7517;48.400;11.770;2022-12-17T05:45:57;3.00;77.60
14850;DHT22;7517;48.400;11.770;2022-12-17T05:48:44;3.00;77.70
14850;DHT22;7517;48.400;11.770;2022-12-17T05:51:29;2.90;77.50
14850;DHT22;7517;48.400;11.770;2022-12-17T05:54:14;2.90;77.60
14850;DHT22;7517;48.400;11.770;2022-12-17T05:56:59;2.90;77.70
14850;DHT22;7517;48.400;11.770;2022-12-17T05:59:44;2.90;77.80
14850;DHT22;7517;48.400;11.770;2022-12-17T06:02:28;2.90;77.80
14850;DHT22;7517;48.400;11.770;2022-12-17T06:05:15;2.90;77.80
14850;DHT22;7517;48.400;11.770;2022-12-17T06:08:03;2.90;77.80
14850;DHT22;7517;48.400;11.770;2022-12-17T06:10:49;2.90;77.60
14850;DHT22;7517;48.400;11.770;2022-12-17T06:13:34;2.90;77.30
14850;DHT22;7517;48.400;11.770;2022-12-17T06:16:18;2.80;77.60
14850;DHT22;7517;48.400;11.770;2022-12-17T06:19:03;2.80;77.20
14850;DHT22;7517;48.400;11.770;2022-12-17T06:21:52;2.80;77.10
14850;DHT22;7517;48.400;11.770;2022-12-17T06:24:37;2.80;77.20
14850;DHT22;7517;48.400;11.770;2022-12-17T06:27:21;2.80;77.40
14850;DHT22;7517;48.400;11.770;2022-12-17T06:30:07;2.80;77.30
14850;DHT22;7517;48.400;11.770;2022-12-17T06:33:02;2.80;77.30
14850;DHT22;7517;48.400;11.770;2022-12-17T06:35:47;2.80;77.10
14850;DHT22;7517;48.400;11.770;2022-12-17T06:38:33;2.70;77.20
14850;DHT22;7517;48.400;11.770;2022-12-17T06:41:18;2.70;77.40
14850;DHT22;7517;48.400;11.770;2022-12-17T06:44:02;2.70;77.50
14850;DHT22;7517;48.400;11.770;2022-12-17T06:46:47;2.70;77.30
14850;DHT22;7517;48.400;11.770;2022-12-17T06:49:32;2.70;77.50
14850;DHT22;7517;48.400;11.770;2022-12-17T06:52:16;2.70;77.60
14850;DHT22;7517;48.400;11.770;2022-12-17T06:55:05;2.70;77.70
14850;DHT22;7517;48.400;11.770;2022-12-17T06:57:55;2.70;77.60
14850;DHT22;7517;48.400;11.770;2022-12-17T07:00:51;2.70;77.60
14850;DHT22;7517;48.400;11.770;2022-12-17T07:03:36;2.70;77.70
14850;DHT22;7517;48.400;11.770;2022-12-17T07:06:21;2.80;77.60
14850;DHT22;7517;48.400;11.770;2022-12-17T07:09:05;2.80;77.20
14850;DHT22;7517;48.400;11.770;2022-12-17T07:11:51;2.80;76.80
14850;DHT22;7517;48.400;11.770;2022-12-17T07:14:38;2.80;76.40
14850;DHT22;7517;48.400;11.770;2022-12-17T07:17:22;2.80;76.70
14850;DHT22;7517;48.400;11.770;2022-12-17T07:20:10;2.70;76.70
14850;DHT22;7517;48.400;11.770;2022-12-17T07:22:55;2.70;76.50
14850;DHT22;7517;48.400;11.770;2022-12-17T07:25:40;2.70;76.50
14850;DHT22;7517;48.400;11.770;2022-12-17T07:28:27;2.70;76.60
14850;DHT22;7517;48.400;11.770;2022-12-17T07:31:11;2.60;76.30
14850;DHT22;7517;48.400;11.770;2022-12-17T07:33:56;2.70;76.30
14850;DHT22;7517;48.400;11.770;2022-12-17T07:36:41;2.60;76.00
14850;DHT22;7517;48.400;11.770;2022-12-17T07:39:26;2.60;76.20
14850;DHT22;7517;48.400;11.770;2022-12-17T07:42:10;2.60;76.30
14850;DHT22;7517;48.400;11.770;2022-12-17T07:44:56;2.60;76.50
14850;DHT22;7517;48.400;11.770;2022-12-17T07:47:41;2.60;76.20
14850;DHT22;7517;48.400;11.770;2022-12-17T07:50:26;2.60;76.30
14850;DHT22;7517;48.400;11.770;2022-12-17T07:53:25;2.60;76.40
14850;DHT22;7517;48.400;11.770;2022-12-17T07:56:10;2.60;76.40
14850;DHT22;7517;48.400;11.770;2022-12-17T07:58:54;2.60;76.50
14850;DHT22;7517;48.400;11.770;2022-12-17T08:01:40;2.60;76.40
14850;DHT22;7517;48.400;11.770;2022-12-17T08:04:25;2.60;76.50
14850;DHT22;7517;48.400;11.770;2022-12-17T08:07:10;2.60;76.70
14850;DHT22;7517;48.400;11.770;2022-12-17T08:09:54;2.60;76.50
14850;DHT22;7517;48.400;11.770;2022-12-17T08:12:39;2.60;76.70
14850;DHT22;7517;48.400;11.770;2022-12-17T08:15:23;2.60;76.80
14850;DHT22;7517;48.400;11.770;2022-12-17T08:18:10;2.60;76.80
14850;DHT22;7517;48.400;11.770;2022-12-17T08:20:54;2.70;77.00
14850;DHT22;7517;48.400;11.770;2022-12-17T08:23:38;2.70;76.90
14850;DHT22;7517;48.400;11.770;2022-12-17T08:26:23;2.70;76.90
14850;DHT22;7517;48.400;11.770;2022-12-17T08:29:07;2.70;76.70
14850;DHT22;7517;48.400;11.770;2022-12-17T08:31:53;2.70;76.40
14850;DHT22;7517;48.400;11.770;2022-12-17T08:34:39;2.80;76.60
14850;DHT22;7517;48.400;11.770;2022-12-17T08:37:23;2.80;76.70
14850;DHT22;7517;48.400;11.770;2022-12-17T08:40:08;2.80;77.00
14850;DHT22;7517;48.400;11.770;2022-12-17T08:42:56;2.80;77.00
14850;DHT22;7517;48.400;11.770;2022-12-17T08:45:52;2.80;76.80
14850;DHT22;7517;48.400;11.770;2022-12-17T08:48:37;2.80;76.40
14850;DHT22;7517;48.400;11.770;2022-12-17T08:51:24;2.80;76.30
14850;DHT22;7517;48.400;11.770;2022-12-17T08:54:09;2.80;76.20
14850;DHT22;7517;48.400;11.770;2022-12-17T08:56:54;2.80;75.90
14850;DHT22;7517;48.400;11.770;2022-12-17T08:59:38;2.80;75.80
14850;DHT22;7517;48.400;11.770;2022-12-17T09:02:23;2.80;75.80
14850;DHT22;7517;48.400;11.770;2022-12-17T09:05:08;2.70;75.70
14850;DHT22;7517;48.400;11.770;2022-12-17T09:07:59;2.70;75.60
14850;DHT22;7517;48.400;11.770;2022-12-17T09:10:46;2.70;75.60
14850;DHT22;7517;48.400;11.770;2022-12-17T09:13:30;2.60;75.80
14850;DHT22;7517;48.400;11.770;2022-12-17T09:16:21;2.60;76.00
14850;DHT22;7517;48.400;11.770;2022-12-17T09:19:08;2.60;75.80
14850;DHT22;7517;48.400;11.770;2022-12-17T09:21:53;2.60;75.90
14850;DHT22;7517;48.400;11.770;2022-12-17T09:24:42;2.60;75.90
14850;DHT22;7517;48.400;11.770;2022-12-17T09:27:27;2.60;75.80
14850;DHT22;7517;48.400;11.770;2022-12-17T09:30:12;2.50;75.80
14850;DHT22;7517;48.400;11.770;2022-12-17T09:32:56;2.50;76.00
14850;DHT22;7517;48.400;11.770;2022-12-17T09:35:41;2.50;76.10
14850;DHT22;7517;48.400;11.770;2022-12-17T09:38:26;2.50;76.40
14850;DHT22;7517;48.400;11.770;2022-12-17T09:41:19;2.50;76.70
14850;DHT22;7517;48.400;11.770;2022-12-17T09:44:17;2.60;77.00
14850;DHT22;7517;48.400;11.770;2022-12-17T09:47:14;2.70;77.90
14850;DHT22;7517;48.400;11.770;2022-12-17T09:50:13;2.80;79.10
14850;DHT22;7517;48.400;11.770;2022-12-17T09:52:59;2.90;80.00
14850;DHT22;7517;48.400;11.770;2022-12-17T09:55:49;3.10;80.70
14850;DHT22;7517;48.400;11.770;2022-12-17T09:58:39;3.30;81.50
14850;DHT22;7517;48.400;11.770;2022-12-17T10:01:27;3.50;82.00
14850;DHT22;7517;48.400;11.770;2022-12-17T10:04:19;3.70;82.60
14850;DHT22;7517;48.400;11.770;2022-12-17T10:07:13;3.90;82.50
14850;DHT22;7517;48.400;11.770;2022-12-17T10:10:13;4.10;82.00
14850;DHT22;7517;48.400;11.770;2022-12-17T10:13:00;4.30;81.60
14850;DHT22;7517;48.400;11.770;2022-12-17T10:15:46;4.50;81.50
14850;DHT22;7517;48.400;11.770;2022-12-17T10:18:39;4.60;81.00
14850;DHT22;7517;48.400;11.770;2022-12-17T10:21:28;4.70;80.20
14850;DHT22;7517;48.400;11.770;2022-12-17T10:24:14;4.80;79.40
14850;DHT22;7517;48.400;11.770;2022-12-17T10:27:07;4.90;79.00
14850;DHT22;7517;48.400;11.770;2022-12-17T10:29:53;4.90;78.20
14850;DHT22;7517;48.400;11.770;2022-12-17T10:32:39;4.90;78.10
14850;DHT22;7517;48.400;11.770;2022-12-17T10:35:26;4.90;76.80
14850;DHT22;7517;48.400;11.770;2022-12-17T10:38:20;4.90;77.00
14850;DHT22;7517;48.400;11.770;2022-12-17T10:41:19;4.90;77.50
14850;DHT22;7517;48.400;11.770;2022-12-17T10:44:23;4.90;77.00
14850;DHT22;7517;48.400;11.770;2022-12-17T10:47:11;4.90;77.20
14850;DHT22;7517;48.400;11.770;2022-12-17T10:50:00;4.90;77.70
14850;DHT22;7517;48.400;11.770;2022-12-17T10:52:46;4.90;77.60
14850;DHT22;7517;48.400;11.770;2022-12-17T10:55:33;4.90;77.70
14850;DHT22;7517;48.400;11.770;2022-12-17T10:58:20;4.90;78.50
14850;DHT22;7517;48.400;11.770;2022-12-17T11:01:09;4.80;77.30
14850;DHT22;7517;48.400;11.770;2022-12-17T11:04:01;4.80;77.20
14850;DHT22;7517;48.400;11.770;2022-12-17T11:06:49;4.80;77.00
14850;DHT22;7517;48.400;11.770;2022-12-17T11:09:41;4.80;76.90
14850;DHT22;7517;48.400;11.770;2022-12-17T11:12:33;4.70;76.80
14850;DHT22;7517;48.400;11.770;2022-12-17T11:15:24;4.70;77.00
14850;DHT22;7517;48.400;11.770;2022-12-17T11:18:18;4.60;76.80
14850;DHT22;7517;48.400;11.770;2022-12-17T11:21:11;4.60;76.90
14850;DHT22;7517;48.400;11.770;2022-12-17T11:24:07;4.50;76.80
14850;DHT22;7517;48.400;11.770;2022-12-17T11:26:57;4.50;76.70
14850;DHT22;7517;48.400;11.770;2022-12-17T11:29:45;4.40;76.70
14850;DHT22;7517;48.400;11.770;2022-12-17T11:32:45;4.40;76.90
14850;DHT22;7517;48.400;11.770;2022-12-17T11:35:47;4.30;76.20
14850;DHT22;7517;48.400;11.770;2022-12-17T11:38:40;4.30;76.50
14850;DHT22;7517;48.400;11.770;2022-12-17T11:41:47;4.20;76.60
14850;DHT22;7517;48.400;11.770;2022-12-17T11:44:47;4.20;76.70
14850;DHT22;7517;48.400;11.770;2022-12-17T11:47:46;4.10;76.80
14850;DHT22;7517;48.400;11.770;2022-12-17T11:50:45;4.10;76.70
14850;DHT22;7517;48.400;11.770;2022-12-17T11:53:44;4.00;76.70
14850;DHT22;7517;48.400;11.770;2022-12-17T11:56:42;3.90;76.30
14850;DHT22;7517;48.400;11.770;2022-12-17T11:59:35;3.80;76.00
14850;DHT22;7517;48.400;11.770;2022-12-17T12:02:43;3.80;76.30
14850;DHT22;7517;48.400;11.770;2022-12-17T12:05:42;3.70;76.60
14850;DHT22;7517;48.400;11.770;2022-12-17T12:08:34;3.70;77.10
14850;DHT22;7517;48.400;11.770;2022-12-17T12:11:27;3.70;77.30
14850;DHT22;7517;48.400;11.770;2022-12-17T12:14:28;3.60;77.00
14850;DHT22;7517;48.400;11.770;2022-12-17T12:17:41;3.60;76.40
14850;DHT22;7517;48.400;11.770;2022-12-17T12:20:44;3.60;76.50
14850;DHT22;7517;48.400;11.770;2022-12-17T12:23:48;3.50;76.20
14850;DHT22;7517;48.400;11.770;2022-12-17T12:26:47;3.50;77.20
14850;DHT22;7517;48.400;11.770;2022-12-17T12:29:42;3.40;76.40
14850;DHT22;7517;48.400;11.770;2022-12-17T12:32:40;3.40;76.60
14850;DHT22;7517;48.400;11.770;2022-12-17T12:35:29;3.40;76.50
14850;DHT22;7517;48.400;11.770;2022-12-17T12:38:18;3.30;76.50
14850;DHT22;7517;48.400;11.770;2022-12-17T12:41:13;3.30;76.70
14850;DHT22;7517;48.400;11.770;2022-12-17T12:44:07;3.30;76.60
14850;DHT22;7517;48.400;11.770;2022-12-17T12:47:08;3.20;76.50
14850;DHT22;7517;48.400;11.770;2022-12-17T12:50:04;3.20;76.40
14850;DHT22;7517;48.400;11.770;2022-12-17T12:52:58;3.10;76.40
14850;DHT22;7517;48.400;11.770;2022-12-17T12:55:43;3.10;76.60
14850;DHT22;7517;48.400;11.770;2022-12-17T12:58:31;3.10;77.00
14850;DHT22;7517;48.400;11.770;2022-12-17T13:01:17;3.10;77.50
14850;DHT22;7517;48.400;11.770;2022-12-17T13:04:21;3.10;77.60
14850;DHT22;7517;48.400;11.770;2022-12-17T13:07:23;3.20;77.30
14850;DHT22;7517;48.400;11.770;2022-12-17T13:09:54;3.20;77.70
14850;DHT22;7517;48.400;11.770;2022-12-17T13:12:38;3.20;77.90
14850;DHT22;7517;48.400;11.770;2022-12-17T13:15:23;3.30;77.70
14850;DHT22;7517;48.400;11.770;2022-12-17T13:18:03;3.30;77.90
14850;DHT22;7517;48.400;11.770;2022-12-17T13:20:42;3.30;78.10
14850;DHT22;7517;48.400;11.770;2022-12-17T13:23:24;3.30;78.10
14850;DHT22;7517;48.400;11.770;2022-12-17T13:26:17;3.40;77.80
14850;DHT22;7517;48.400;11.770;2022-12-17T13:29:01;3.40;77.30
14850;DHT22;7517;48.400;11.770;2022-12-17T13:31:45;3.40;77.30
14850;DHT22;7517;48.400;11.770;2022-12-17T13:34:25;3.40;77.40
14850;DHT22;7517;48.400;11.770;2022-12-17T13:37:09;3.40;77.60
14850;DHT22;7517;48.400;11.770;2022-12-17T13:39:50;3.40;77.60
14850;DHT22;7517;48.400;11.770;2022-12-17T13:42:27;3.40;77.60
14850;DHT22;7517;48.400;11.770;2022-12-17T13:44:56;3.50;77.60
14850;DHT22;7517;48.400;11.770;2022-12-17T13:47:26;3.40;77.30
14850;DHT22;7517;48.400;11.770;2022-12-17T13:49:58;3.40;77.40
14850;DHT22;7517;48.400;11.770;2022-12-17T13:52:28;3.40;77.50
14850;DHT22;7517;48.400;11.770;2022-12-17T13:55:06;3.40;77.20
14850;DHT22;7517;48.400;11.770;2022-12-17T13:57:36;3.40;77.00
14850;DHT22;7517;48.400;11.770;2022-12-17T14:00:04;3.40;77.20
14850;DHT22;7517;48.400;11.770;2022-12-17T14:02:34;3.40;77.10
14850;DHT22;7517;48.400;11.770;2022-12-17T14:05:06;3.40;77.10
14850;DHT22;7517;48.400;11.770;2022-12-17T14:07:51;3.40;76.90
14850;DHT22;7517;48.400;11.770;2022-12-17T14:10:19;3.40;76.60
14850;DHT22;7517;48.400;11.770;2022-12-17T14:12:47;3.50;76.70
14850;DHT22;7517;48.400;11.770;2022-12-17T14:15:23;3.30;76.90
14850;DHT22;7517;48.400;11.770;2022-12-17T14:17:54;3.30;76.40
14850;DHT22;7517;48.400;11.770;2022-12-17T14:20:25;3.20;76.10
14850;DHT22;7517;48.400;11.770;2022-12-17T14:22:59;3.20;76.10
14850;DHT22;7517;48.400;11.770;2022-12-17T14:25:31;3.20;75.80
14850;DHT22;7517;48.400;11.770;2022-12-17T14:28:02;3.10;75.80
14850;DHT22;7517;48.400;11.770;2022-12-17T14:30:35;3.10;75.80
14850;DHT22;7517;48.400;11.770;2022-12-17T14:33:04;3.00;75.90
14850;DHT22;7517;48.400;11.770;2022-12-17T14:35:52;3.00;76.10
14850;DHT22;7517;48.400;11.770;2022-12-17T14:38:21;2.90;76.20
14850;DHT22;7517;48.400;11.770;2022-12-17T14:40:49;2.90;76.50
14850;DHT22;7517;48.400;11.770;2022-12-17T14:43:21;2.90;76.70
14850;DHT22;7517;48.400;11.770;2022-12-17T14:45:58;2.90;76.60
14850;DHT22;7517;48.400;11.770;2022-12-17T14:48:44;2.90;76.50
14850;DHT22;7517;48.400;11.770;2022-12-17T14:51:29;2.90;76.50
14850;DHT22;7517;48.400;11.770;2022-12-17T14:54:19;2.90;76.40
14850;DHT22;7517;48.400;11.770;2022-12-17T14:56:54;2.90;75.70
14850;DHT22;7517;48.400;11.770;2022-12-17T14:59:30;2.90;76.00
14850;DHT22;7517;48.400;11.770;2022-12-17T15:02:00;2.80;75.80
14850;DHT22;7517;48.400;11.770;2022-12-17T15:04:31;2.90;75.90
14850;DHT22;7517;48.400;11.770;2022-12-17T15:06:58;2.80;75.90
14850;DHT22;7517;48.400;11.770;2022-12-17T15:09:27;2.80;75.80
14850;DHT22;7517;48.400;11.770;2022-12-17T15:11:54;2.70;75.60
14850;DHT22;7517;48.400;11.770;2022-12-17T15:14:21;2.70;75.60
14850;DHT22;7517;48.400;11.770;2022-12-17T15:16:52;2.70;75.70
14850;DHT22;7517;48.400;11.770;2022-12-17T15:19:20;2.60;75.70
14850;DHT22;7517;48.400;11.770;2022-12-17T15:21:47;2.60;75.80
14850;DHT22;7517;48.400;11.770;2022-12-17T15:24:17;2.60;75.60
14850;DHT22;7517;48.400;11.770;2022-12-17T15:26:48;2.60;75.60
14850;DHT22;7517;48.400;11.770;2022-12-17T15:29:15;2.60;75.50
14850;DHT22;7517;48.400;11.770;2022-12-17T15:31:42;2.70;75.40
14850;DHT22;7517;48.400;11.770;2022-12-17T15:34:10;2.50;75.40
14850;DHT22;7517;48.400;11.770;2022-12-17T15:36:38;2.50;75.30
14850;DHT22;7517;48.400;11.770;2022-12-17T15:39:05;2.40;75.10
14850;DHT22;7517;48.400;11.770;2022-12-17T15:41:33;2.40;75.00
14850;DHT22;7517;48.400;11.770;2022-12-17T15:44:20;2.40;74.90
14850;DHT22;7517;48.400;11.770;2022-12-17T15:46:47;2.30;74.70
14850;DHT22;7517;48.400;11.770;2022-12-17T15:49:14;2.30;75.00
14850;DHT22;7517;48.400;11.770;2022-12-17T15:51:41;2.20;75.00
14850;DHT22;7517;48.400;11.770;2022-12-17T15:54:08;2.20;75.00
14850;DHT22;7517;48.400;11.770;2022-12-17T15:56:36;2.20;74.80
14850;DHT22;7517;48.400;11.770;2022-12-17T15:59:03;2.10;74.80
14850;DHT22;7517;48.400;11.770;2022-12-17T16:01:32;2.10;74.80
14850;DHT22;7517;48.400;11.770;2022-12-17T16:03:59;2.10;74.70
14850;DHT22;7517;48.400;11.770;2022-12-17T16:06:27;2.00;74.40
14850;DHT22;7517;48.400;11.770;2022-12-17T16:08:54;2.00;74.60
14850;DHT22;7517;48.400;11.770;2022-12-17T16:11:21;1.90;74.60
14850;DHT22;7517;48.400;11.770;2022-12-17T16:13:52;1.90;74.70
14850;DHT22;7517;48.400;11.770;2022-12-17T16:16:21;1.80;74.60
14850;DHT22;7517;48.400;11.770;2022-12-17T16:18:50;1.80;74.60
14850;DHT22;7517;48.400;11.770;2022-12-17T16:21:18;1.70;74.50
14850;DHT22;7517;48.400;11.770;2022-12-17T16:23:45;1.70;74.60
14850;DHT22;7517;48.400;11.770;2022-12-17T16:26:13;1.60;75.10
14850;DHT22;7517;48.400;11.770;2022-12-17T16:28:43;1.60;74.70
14850;DHT22;7517;48.400;11.770;2022-12-17T16:31:12;1.50;74.30
14850;DHT22;7517;48.400;11.770;2022-12-17T16:33:42;1.50;74.40
14850;DHT22;7517;48.400;11.770;2022-12-17T16:36:15;1.40;74.40
14850;DHT22;7517;48.400;11.770;2022-12-17T16:38:46;1.40;74.10
14850;DHT22;7517;48.400;11.770;2022-12-17T16:41:15;1.30;74.20
14850;DHT22;7517;48.400;11.770;2022-12-17T16:43:44;1.30;74.40
14850;DHT22;7517;48.400;11.770;2022-12-17T16:46:24;1.20;74.60
14850;DHT22;7517;48.400;11.770;2022-12-17T16:48:53;1.20;74.40
14850;DHT22;7517;48.400;11.770;2022-12-17T16:51:24;1.10;74.30
14850;DHT22;7517;48.400;11.770;2022-12-17T16:53:53;1.10;74.20
14850;DHT22;7517;48.400;11.770;2022-12-17T16:56:23;1.00;74.00
14850;DHT22;7517;48.400;11.770;2022-12-17T16:58:53;1.00;74.10
14850;DHT22;7517;48.400;11.770;2022-12-17T17:01:22;1.00;74.20
14850;DHT22;7517;48.400;11.770;2022-12-17T17:03:51;1.00;74.50
14850;DHT22;7517;48.400;11.770;2022-12-17T17:06:18;0.40;74.20
14850;DHT22;7517;48.400;11.770;2022-12-17T17:08:47;0.90;74.60
14850;DHT22;7517;48.400;11.770;2022-12-17T17:11:16;0.80;74.50
14850;DHT22;7517;48.400;11.770;2022-12-17T17:13:46;0.80;74.50
14850;DHT22;7517;48.400;11.770;2022-12-17T17:16:14;0.80;74.60
14850;DHT22;7517;48.400;11.770;2022-12-17T17:18:42;0.70;74.60
14850;DHT22;7517;48.400;11.770;2022-12-17T17:21:25;0.70;74.50
14850;DHT22;7517;48.400;11.770;2022-12-17T17:23:57;0.70;74.40
14850;DHT22;7517;48.400;11.770;2022-12-17T17:26:27;0.70;74.50
14850;DHT22;7517;48.400;11.770;2022-12-17T17:28:55;0.70;74.70
14850;DHT22;7517;48.400;11.770;2022-12-17T17:31:23;0.60;74.80